Time;durP1;ratioP1;P1;durP2;ratioP2;P2;SDS_P1;SDS_P2;PMS_P1;PMS_P2;Temp;Humidity;BMP_temperature;BMP_pressure;BME280_temperature;BME280_humidity;BME280_pressure;Samples;Min_cycle;Max_cycle;Signal;HPM_P1;HPM_P2
2023/03/02 00:00:44;;;;;;;115.93;38.60;;;2.10;99.90;;;;;;5049844;28;20235;-76
2023/03/02 00:03:13;;;;;;;107.30;38.10;;;2.20;99.90;;;;;;5050901;28;20231;-79
2023/03/02 00:05:41;;;;;;;106.23;38.97;;;2.20;99.90;;;;;;5050674;28;20728;-79
2023/03/02 00:08:08;;;;;;;105.87;38.27;;;2.20;99.90;;;;;;5051094;28;20193;-76
2023/03/02 00:10:37;;;;;;;106.87;37.97;;;2.30;99.90;;;;;;5050331;28;20190;-75
2023/03/02 00:13:04;;;;;;;107.13;38.47;;;2.30;99.90;;;;;;5050551;28;20212;-79
2023/03/02 00:15:30;;;;;;;108.73;39.53;;;2.30;99.90;;;;;;5031812;28;20206;-79
2023/03/02 00:17:57;;;;;;;108.17;40.57;;;2.30;99.90;;;;;;5032303;28;20678;-77
2023/03/02 00:20:24;;;;;;;113.27;38.73;;;2.30;99.90;;;;;;5049465;28;20350;-76
2023/03/02 00:22:51;;;;;;;106.27;39.80;;;2.30;99.90;;;;;;5050354;28;20741;-77
2023/03/02 00:25:18;;;;;;;122.20;41.30;;;2.40;99.90;;;;;;5050332;28;20226;-78
2023/03/02 00:27:45;;;;;;;111.23;40.07;;;2.40;99.90;;;;;;5049408;28;20300;-76
2023/03/02 00:30:16;;;;;;;101.90;38.60;;;2.40;99.90;;;;;;5049365;28;20293;-77
2023/03/02 00:32:44;;;;;;;116.07;40.23;;;2.40;99.90;;;;;;5049966;28;20205;-76
2023/03/02 00:35:11;;;;;;;115.53;38.37;;;2.40;99.90;;;;;;5049330;28;20216;-77
2023/03/02 00:37:38;;;;;;;100.87;38.57;;;2.40;99.90;;;;;;5050135;28;20222;-76
2023/03/02 00:40:08;;;;;;;109.13;38.50;;;2.40;99.90;;;;;;5031865;28;20290;-76
2023/03/02 00:42:36;;;;;;;107.10;37.27;;;2.40;99.90;;;;;;5049696;28;20254;-77
2023/03/02 00:45:04;;;;;;;111.97;38.30;;;2.40;99.90;;;;;;5048930;28;20257;-77
2023/03/02 00:47:34;;;;;;;105.33;37.30;;;2.30;99.90;;;;;;5032133;28;20575;-76
2023/03/02 00:50:01;;;;;;;103.63;37.67;;;2.30;99.90;;;;;;5050377;28;20479;-77
2023/03/02 00:52:29;;;;;;;95.20;36.53;;;2.20;99.90;;;;;;5049860;28;20514;-77
2023/03/02 00:54:56;;;;;;;96.40;37.43;;;2.20;99.90;;;;;;5029587;28;20654;-78
2023/03/02 00:57:23;;;;;;;105.57;37.13;;;2.10;99.90;;;;;;5049801;28;20244;-77
2023/03/02 00:59:50;;;;;;;102.37;35.20;;;2.00;99.90;;;;;;5032149;28;20292;-76
2023/03/02 01:02:17;;;;;;;104.73;39.27;;;2.00;99.90;;;;;;5031914;28;20197;-76
2023/03/02 01:04:45;;;;;;;111.70;36.80;;;1.90;99.90;;;;;;5048702;28;20308;-77
2023/03/02 01:07:15;;;;;;;103.07;35.97;;;1.90;99.90;;;;;;5049677;28;20628;-76
2023/03/02 01:09:44;;;;;;;101.57;37.77;;;1.80;99.90;;;;;;5049654;28;20657;-77
2023/03/02 01:12:11;;;;;;;116.43;39.47;;;1.80;99.90;;;;;;5050153;28;20197;-77
2023/03/02 01:14:40;;;;;;;105.77;36.63;;;1.80;99.90;;;;;;5048569;28;20209;-78
2023/03/02 01:17:08;;;;;;;115.37;37.97;;;1.80;99.90;;;;;;5049369;28;20189;-76
2023/03/02 01:19:35;;;;;;;110.60;38.20;;;1.90;99.90;;;;;;5050243;28;20290;-76
2023/03/02 01:22:02;;;;;;;113.00;38.27;;;1.90;99.90;;;;;;5049217;28;20292;-76
2023/03/02 01:24:31;;;;;;;106.97;37.67;;;1.90;99.90;;;;;;5027934;28;20634;-79
2023/03/02 01:26:57;;;;;;;106.37;38.00;;;1.90;99.90;;;;;;5049509;28;20197;-77
2023/03/02 01:29:25;;;;;;;105.07;36.10;;;1.90;99.90;;;;;;5049925;28;20211;-76
2023/03/02 01:31:51;;;;;;;102.33;36.73;;;1.90;99.90;;;;;;5049221;28;20193;-77
2023/03/02 01:34:18;;;;;;;101.33;36.07;;;1.80;99.90;;;;;;5048115;28;20296;-77
2023/03/02 01:36:45;;;;;;;102.33;38.03;;;1.70;99.90;;;;;;5049361;28;20200;-78
2023/03/02 01:39:15;;;;;;;95.17;33.67;;;1.70;99.90;;;;;;5032138;28;20193;-78
2023/03/02 01:41:44;;;;;;;111.77;35.60;;;1.60;99.90;;;;;;5049787;28;20288;-78
2023/03/02 01:44:46;;;;;;;104.90;37.57;;;1.60;99.90;;;;;;5048155;28;20323;-78
2023/03/02 01:47:32;;;;;;;99.73;35.00;;;1.50;99.90;;;;;;5049520;28;20368;-76
2023/03/02 01:50:13;;;;;;;105.50;37.03;;;1.50;99.90;;;;;;5037072;28;20603;-76
2023/03/02 01:52:40;;;;;;;108.70;37.03;;;1.40;99.90;;;;;;5053501;28;20232;-77
2023/03/02 01:55:11;;;;;;;106.97;36.10;;;1.40;99.90;;;;;;5053155;28;20285;-77
2023/03/02 01:57:43;;;;;;;108.27;37.13;;;1.30;99.90;;;;;;5053053;28;20710;-77
2023/03/02 02:00:18;;;;;;;103.80;36.40;;;1.30;99.90;;;;;;5052589;28;20581;-77
2023/03/02 02:02:45;;;;;;;110.40;37.63;;;1.30;99.90;;;;;;5052076;28;20264;-78
2023/03/02 02:05:18;;;;;;;98.20;36.17;;;1.20;99.90;;;;;;5053000;28;20238;-77
2023/03/02 02:07:45;;;;;;;120.93;37.67;;;1.20;99.90;;;;;;5052797;28;20571;-76
2023/03/02 02:10:13;;;;;;;111.80;38.90;;;1.20;99.90;;;;;;5053535;28;20208;-76
2023/03/02 02:12:40;;;;;;;108.27;35.30;;;1.10;99.90;;;;;;5051780;28;20299;-76
2023/03/02 02:15:07;;;;;;;102.30;36.77;;;1.10;99.90;;;;;;5053430;28;20284;-77
2023/03/02 02:17:46;;;;;;;113.63;36.20;;;1.00;99.90;;;;;;5052280;28;20738;-76
2023/03/02 02:20:34;;;;;;;110.77;36.23;;;1.00;99.90;;;;;;5034026;28;20277;-77
2023/03/02 02:23:22;;;;;;;110.80;38.13;;;1.00;99.90;;;;;;5052470;28;20226;-76
2023/03/02 02:25:52;;;;;;;108.00;36.20;;;0.90;99.90;;;;;;5052365;28;20197;-76
2023/03/02 02:28:26;;;;;;;118.93;37.43;;;1.00;99.90;;;;;;5050939;28;20661;-77
2023/03/02 02:31:25;;;;;;;135.67;41.30;;;0.90;99.90;;;;;;5053039;28;20566;-76
2023/03/02 02:34:00;;;;;;;131.93;38.47;;;1.00;99.90;;;;;;5051003;28;20603;-76
2023/03/02 02:36:36;;;;;;;135.33;39.33;;;1.00;99.90;;;;;;5052682;28;20629;-76
2023/03/02 02:39:06;;;;;;;131.90;37.60;;;1.10;99.90;;;;;;5035030;28;20207;-77
2023/03/02 02:41:38;;;;;;;130.00;38.60;;;1.20;99.90;;;;;;5034671;28;20246;-77
2023/03/02 02:44:05;;;;;;;122.60;38.33;;;1.30;99.90;;;;;;5051518;28;20244;-76
2023/03/02 02:46:33;;;;;;;132.50;38.67;;;1.30;99.90;;;;;;5052703;28;20307;-79
2023/03/02 02:49:02;;;;;;;106.43;36.80;;;1.30;99.90;;;;;;5052331;28;20211;-78
2023/03/02 02:51:29;;;;;;;109.10;37.33;;;1.40;99.90;;;;;;5052278;28;20225;-77
2023/03/02 02:53:59;;;;;;;116.23;38.40;;;1.40;99.90;;;;;;5050163;28;20542;-77
2023/03/02 02:56:32;;;;;;;109.73;35.77;;;1.40;99.90;;;;;;5033506;28;20209;-76
2023/03/02 02:59:21;;;;;;;115.07;36.63;;;1.40;99.90;;;;;;5032388;28;20666;-77
2023/03/02 03:01:49;;;;;;;105.80;34.93;;;1.30;99.90;;;;;;5037323;28;20224;-76
2023/03/02 03:04:23;;;;;;;111.90;35.43;;;1.30;99.90;;;;;;5032728;28;20245;-76
2023/03/02 03:06:56;;;;;;;100.83;33.53;;;1.20;99.90;;;;;;5051932;28;20194;-77
2023/03/02 03:09:24;;;;;;;110.07;34.53;;;1.20;99.90;;;;;;5052273;28;20280;-76
2023/03/02 03:11:55;;;;;;;108.83;35.53;;;1.20;99.90;;;;;;5039217;28;20281;-76
2023/03/02 03:14:34;;;;;;;92.50;32.67;;;1.10;99.90;;;;;;5050648;28;20215;-77
2023/03/02 03:17:01;;;;;;;97.10;33.07;;;1.10;99.90;;;;;;5050578;28;20290;-76
2023/03/02 03:19:30;;;;;;;99.33;34.57;;;1.00;99.90;;;;;;5033580;28;20625;-76
2023/03/02 03:21:59;;;;;;;97.23;34.07;;;1.00;99.90;;;;;;5033793;28;20660;-76
2023/03/02 03:24:28;;;;;;;110.20;35.77;;;0.90;99.90;;;;;;5051673;28;20250;-76
2023/03/02 03:26:55;;;;;;;108.07;35.30;;;0.90;99.90;;;;;;5051640;28;20199;-76
2023/03/02 03:29:25;;;;;;;105.00;33.43;;;0.80;99.90;;;;;;5051214;28;20302;-76
2023/03/02 03:31:54;;;;;;;108.10;35.70;;;0.80;99.90;;;;;;5050608;28;20202;-75
2023/03/02 03:34:21;;;;;;;110.70;34.53;;;0.80;99.90;;;;;;5050815;28;20204;-76
2023/03/02 03:36:49;;;;;;;110.50;37.10;;;0.80;99.90;;;;;;5034092;28;20208;-77
2023/03/02 03:39:17;;;;;;;121.83;38.70;;;0.80;99.90;;;;;;5051210;28;20278;-76
2023/03/02 03:41:44;;;;;;;113.43;37.97;;;0.80;99.90;;;;;;5050946;28;20205;-77
2023/03/02 03:44:11;;;;;;;112.73;35.90;;;0.90;99.90;;;;;;5033079;28;20271;-76
2023/03/02 03:46:38;;;;;;;118.70;35.43;;;0.90;99.90;;;;;;5051281;28;20475;-76
2023/03/02 03:49:05;;;;;;;115.47;36.93;;;0.90;99.90;;;;;;5048993;28;20637;-78
2023/03/02 03:51:34;;;;;;;123.53;36.60;;;0.90;99.90;;;;;;5050919;28;20216;-76
2023/03/02 03:54:06;;;;;;;123.63;37.30;;;0.90;99.90;;;;;;5051026;28;20685;-76
2023/03/02 03:56:37;;;;;;;109.23;34.63;;;0.90;99.90;;;;;;5050501;28;20200;-75
2023/03/02 03:59:06;;;;;;;109.23;34.70;;;0.90;99.90;;;;;;5050697;28;20201;-79
2023/03/02 04:01:40;;;;;;;102.03;32.50;;;0.90;99.90;;;;;;5051032;28;20261;-77
2023/03/02 04:04:10;;;;;;;101.83;32.73;;;0.80;99.90;;;;;;5049078;28;20242;-79
2023/03/02 04:06:37;;;;;;;105.07;33.93;;;0.80;99.90;;;;;;5050712;28;20212;-77
2023/03/02 04:09:06;;;;;;;106.37;36.87;;;0.80;99.90;;;;;;5049515;28;20239;-78
2023/03/02 04:11:39;;;;;;;113.47;35.93;;;0.70;99.90;;;;;;5050730;28;20251;-75
2023/03/02 04:14:07;;;;;;;122.43;35.50;;;0.60;99.90;;;;;;5049590;28;20326;-76
2023/03/02 04:16:35;;;;;;;112.97;36.40;;;0.60;99.90;;;;;;5040476;28;20223;-75
2023/03/02 04:19:03;;;;;;;113.30;34.83;;;0.60;99.90;;;;;;5052639;28;20215;-77
2023/03/02 04:21:30;;;;;;;104.93;35.33;;;0.60;99.90;;;;;;5058574;28;20206;-77
2023/03/02 04:23:56;;;;;;;119.43;34.93;;;0.50;99.90;;;;;;5049715;28;20231;-76
2023/03/02 04:26:25;;;;;;;115.67;34.20;;;0.50;99.90;;;;;;5033152;28;20199;-79
2023/03/02 04:28:52;;;;;;;118.53;37.13;;;0.50;99.90;;;;;;5050764;28;20202;-78
2023/03/02 04:31:19;;;;;;;118.80;35.93;;;0.50;99.90;;;;;;5050443;28;20209;-78
2023/03/02 04:33:46;;;;;;;124.70;35.67;;;0.60;99.90;;;;;;5050144;28;20262;-78
2023/03/02 04:36:12;;;;;;;142.57;40.10;;;0.60;99.90;;;;;;5050114;28;20299;-78
2023/03/02 04:38:39;;;;;;;132.93;38.50;;;0.60;99.90;;;;;;5032113;28;20709;-77
2023/03/02 04:41:06;;;;;;;127.07;39.10;;;0.60;99.90;;;;;;5048664;28;20302;-79
2023/03/02 04:43:33;;;;;;;120.10;38.33;;;0.70;99.90;;;;;;5049730;28;20281;-78
2023/03/02 04:46:00;;;;;;;118.93;37.47;;;0.70;99.90;;;;;;5046576;28;20323;-76
2023/03/02 04:48:26;;;;;;;124.87;38.77;;;0.70;99.90;;;;;;5050191;28;20201;-76
2023/03/02 04:50:53;;;;;;;135.60;38.53;;;0.70;99.90;;;;;;5048676;28;20200;-76
2023/03/02 04:53:20;;;;;;;134.37;37.77;;;0.70;99.90;;;;;;5049969;28;20214;-77
2023/03/02 04:55:47;;;;;;;118.60;38.13;;;0.70;99.90;;;;;;5049122;28;20215;-77
2023/03/02 04:58:14;;;;;;;124.47;38.97;;;0.70;99.90;;;;;;5047552;28;20281;-76
2023/03/02 05:00:40;;;;;;;111.90;36.37;;;0.70;99.90;;;;;;5042293;28;20292;-79
2023/03/02 05:03:07;;;;;;;126.63;37.93;;;0.80;99.90;;;;;;5045651;28;20197;-76
2023/03/02 05:05:34;;;;;;;127.33;37.77;;;0.80;99.90;;;;;;5031667;28;20243;-77
2023/03/02 05:08:01;;;;;;;123.57;38.33;;;0.70;99.90;;;;;;5049362;28;20203;-78
2023/03/02 05:10:28;;;;;;;115.63;35.77;;;0.70;99.90;;;;;;5031421;28;20209;-77
2023/03/02 05:13:01;;;;;;;114.57;37.50;;;0.70;99.90;;;;;;5049899;28;20322;-77
2023/03/02 05:15:39;;;;;;;117.17;36.27;;;0.60;99.90;;;;;;5048949;28;20237;-77
2023/03/02 05:18:07;;;;;;;126.33;36.60;;;0.70;99.90;;;;;;5048888;28;20728;-78
2023/03/02 05:20:35;;;;;;;123.50;37.17;;;0.70;99.90;;;;;;5048991;28;20193;-76
2023/03/02 05:23:08;;;;;;;121.17;35.20;;;0.60;99.90;;;;;;5049002;28;20205;-77
2023/03/02 05:25:36;;;;;;;118.03;34.50;;;0.70;99.90;;;;;;5051834;28;20303;-76
2023/03/02 05:28:04;;;;;;;112.23;35.50;;;0.70;99.90;;;;;;5053979;28;20272;-76
2023/03/02 05:30:36;;;;;;;118.07;34.43;;;0.70;99.90;;;;;;5053314;28;20623;-76
2023/03/02 05:33:03;;;;;;;116.70;35.87;;;0.70;99.90;;;;;;5033702;28;20204;-77
2023/03/02 05:35:29;;;;;;;107.33;36.03;;;0.70;99.90;;;;;;5047068;28;20280;-76
2023/03/02 05:37:56;;;;;;;103.73;33.60;;;0.70;99.90;;;;;;5052235;28;20559;-78
2023/03/02 05:40:23;;;;;;;109.07;34.40;;;0.70;99.90;;;;;;5053253;28;20209;-76
2023/03/02 05:42:50;;;;;;;97.57;33.63;;;0.70;99.90;;;;;;5051437;28;20223;-76
2023/03/02 05:45:27;;;;;;;98.93;31.97;;;0.70;99.90;;;;;;5033961;28;20311;-77
2023/03/02 05:47:54;;;;;;;105.03;34.67;;;0.70;99.90;;;;;;5052752;28;20659;-77
2023/03/02 05:50:21;;;;;;;102.73;31.83;;;0.60;99.90;;;;;;5053388;28;20687;-77
2023/03/02 05:52:49;;;;;;;101.63;32.67;;;0.60;99.90;;;;;;5034827;28;20229;-76
2023/03/02 05:55:17;;;;;;;103.63;32.97;;;0.50;99.90;;;;;;5033316;28;20316;-76
2023/03/02 05:57:44;;;;;;;94.57;32.13;;;0.50;99.90;;;;;;5042967;28;20230;-76
2023/03/02 06:00:12;;;;;;;105.10;34.70;;;0.50;99.90;;;;;;5052364;28;20240;-77
2023/03/02 06:02:40;;;;;;;104.90;32.83;;;0.50;99.90;;;;;;5048390;28;20240;-77
2023/03/02 06:05:09;;;;;;;106.17;34.47;;;0.50;99.90;;;;;;5052156;28;20323;-77
2023/03/02 06:07:36;;;;;;;98.27;35.17;;;0.40;99.90;;;;;;5050807;28;20201;-77
2023/03/02 06:10:09;;;;;;;116.60;36.20;;;0.40;99.90;;;;;;5035125;28;20220;-77
2023/03/02 06:12:36;;;;;;;115.27;33.93;;;0.40;99.90;;;;;;5041820;28;20236;-76
2023/03/02 06:15:04;;;;;;;113.50;34.10;;;0.30;99.90;;;;;;5045840;28;20654;-75
2023/03/02 06:17:31;;;;;;;114.07;33.77;;;0.30;99.90;;;;;;5047069;28;20244;-78
2023/03/02 06:19:58;;;;;;;105.43;34.00;;;0.40;99.90;;;;;;5040042;28;20220;-76
2023/03/02 06:22:25;;;;;;;107.10;33.27;;;0.30;99.90;;;;;;5046003;28;20211;-76
2023/03/02 06:24:54;;;;;;;92.30;31.83;;;0.30;99.90;;;;;;5050961;28;20594;-75
2023/03/02 06:27:20;;;;;;;101.87;30.70;;;0.30;99.90;;;;;;5030878;28;20212;-76
2023/03/02 06:29:48;;;;;;;109.10;32.50;;;0.30;99.90;;;;;;5041956;28;20297;-77
2023/03/02 06:32:14;;;;;;;101.60;31.70;;;0.20;99.90;;;;;;5048977;28;20247;-75
2023/03/02 06:34:41;;;;;;;105.30;31.63;;;0.20;99.90;;;;;;5050489;28;20700;-77
2023/03/02 06:37:09;;;;;;;97.57;31.37;;;0.20;99.90;;;;;;5050485;28;20554;-76
2023/03/02 06:39:36;;;;;;;96.60;30.27;;;0.20;99.90;;;;;;5050760;28;20202;-75
2023/03/02 06:42:02;;;;;;;112.17;32.30;;;0.20;99.90;;;;;;5042481;28;20303;-77
2023/03/02 06:44:29;;;;;;;119.50;33.53;;;0.20;99.90;;;;;;5043638;28;20255;-77
2023/03/02 06:46:56;;;;;;;112.70;32.77;;;0.20;99.90;;;;;;5055631;28;20282;-75
2023/03/02 06:49:23;;;;;;;107.17;31.70;;;0.20;99.90;;;;;;5054385;28;20292;-77
2023/03/02 06:51:50;;;;;;;126.30;37.23;;;0.30;99.90;;;;;;5052563;28;20549;-76
2023/03/02 06:54:17;;;;;;;113.57;34.90;;;0.30;99.90;;;;;;5052486;28;20752;-76
2023/03/02 06:56:43;;;;;;;119.80;34.70;;;0.30;99.90;;;;;;5052309;28;20468;-74
2023/03/02 06:59:10;;;;;;;128.83;35.93;;;0.40;99.90;;;;;;5049813;28;20635;-77
2023/03/02 07:01:37;;;;;;;142.10;35.57;;;0.40;99.90;;;;;;5039672;28;20569;-75
2023/03/02 07:04:04;;;;;;;117.63;34.83;;;0.50;99.90;;;;;;5045672;28;20238;-76
2023/03/02 07:06:31;;;;;;;118.30;34.10;;;0.50;99.90;;;;;;5049560;28;20240;-76
2023/03/02 07:08:57;;;;;;;119.10;33.53;;;0.60;99.90;;;;;;5027092;28;20214;-76
2023/03/02 07:11:24;;;;;;;122.60;35.37;;;0.60;99.90;;;;;;5047943;28;20251;-76
2023/03/02 07:13:51;;;;;;;124.10;34.77;;;0.70;99.90;;;;;;5040928;28;20262;-78
2023/03/02 07:16:18;;;;;;;115.00;33.80;;;0.70;99.90;;;;;;5054863;28;20676;-78
2023/03/02 07:18:45;;;;;;;110.73;35.27;;;0.80;99.90;;;;;;5038871;28;20206;-78
2023/03/02 07:21:11;;;;;;;125.63;34.40;;;0.80;99.90;;;;;;5021126;28;20269;-77
2023/03/02 07:23:38;;;;;;;116.53;34.40;;;0.90;99.90;;;;;;5044014;28;20237;-76
2023/03/02 07:26:07;;;;;;;109.43;33.63;;;1.00;99.90;;;;;;5051624;28;20723;-77
2023/03/02 07:28:39;;;;;;;108.23;33.03;;;1.10;99.90;;;;;;5051492;28;20212;-78
2023/03/02 07:31:06;;;;;;;121.90;34.13;;;1.10;99.90;;;;;;5051980;28;20193;-75
2023/03/02 07:33:34;;;;;;;118.13;34.37;;;1.20;99.90;;;;;;5051224;28;20209;-76
2023/03/02 07:36:01;;;;;;;106.70;33.33;;;1.20;99.90;;;;;;5051147;28;20205;-77
2023/03/02 07:38:28;;;;;;;105.90;32.73;;;1.30;99.90;;;;;;5050761;28;20222;-77
2023/03/02 07:40:55;;;;;;;109.30;31.17;;;1.30;99.90;;;;;;5050573;28;20201;-75
2023/03/02 07:43:27;;;;;;;100.07;31.93;;;1.40;99.90;;;;;;5051654;28;20203;-78
2023/03/02 07:45:54;;;;;;;97.87;30.80;;;1.50;99.90;;;;;;5033656;28;20225;-76
2023/03/02 07:48:22;;;;;;;106.57;30.90;;;1.50;99.90;;;;;;5049889;28;20197;-77
2023/03/02 07:50:48;;;;;;;106.43;32.90;;;1.60;99.90;;;;;;5050947;28;20244;-76
2023/03/02 07:53:15;;;;;;;106.93;32.40;;;1.70;99.90;;;;;;5038986;28;20245;-75
2023/03/02 07:55:42;;;;;;;89.10;30.87;;;1.80;99.90;;;;;;5050898;28;20646;-77
2023/03/02 07:58:09;;;;;;;90.60;31.43;;;1.80;99.90;;;;;;5051260;28;20544;-78
2023/03/02 08:00:35;;;;;;;98.50;32.47;;;1.90;99.90;;;;;;5033009;28;20223;-75
2023/03/02 08:03:02;;;;;;;89.37;28.60;;;1.90;99.90;;;;;;5049838;28;20203;-77
2023/03/02 08:05:30;;;;;;;100.67;30.33;;;2.00;99.90;;;;;;5048636;28;20928;-80
2023/03/02 08:07:56;;;;;;;91.07;32.13;;;2.00;99.90;;;;;;5035249;28;20230;-78
2023/03/02 08:10:23;;;;;;;87.93;30.47;;;2.10;99.90;;;;;;5051250;28;20298;-76
2023/03/02 08:12:50;;;;;;;93.07;31.17;;;2.20;99.90;;;;;;5050098;28;20239;-75
2023/03/02 08:15:17;;;;;;;85.73;29.33;;;2.30;99.90;;;;;;5050491;28;20563;-77
2023/03/02 08:17:44;;;;;;;90.23;29.13;;;2.30;99.90;;;;;;5038384;28;20207;-76
2023/03/02 08:20:11;;;;;;;83.23;28.37;;;2.40;99.90;;;;;;5051000;28;20292;-76
2023/03/02 08:22:37;;;;;;;76.77;27.50;;;2.50;99.90;;;;;;5050537;28;20210;-75
2023/03/02 08:25:06;;;;;;;75.23;26.60;;;2.50;99.90;;;;;;5049585;28;20221;-76
2023/03/02 08:27:32;;;;;;;69.40;26.83;;;2.60;99.90;;;;;;5049430;28;20268;-76
2023/03/02 08:29:59;;;;;;;72.03;25.87;;;2.70;99.90;;;;;;5053342;28;20203;-77
2023/03/02 08:32:26;;;;;;;72.63;27.27;;;2.70;99.90;;;;;;5053445;28;21224;-76
2023/03/02 08:34:53;;;;;;;67.20;25.33;;;2.70;99.90;;;;;;5070293;28;20281;-76
2023/03/02 08:37:20;;;;;;;65.43;24.63;;;2.80;99.90;;;;;;5059997;28;20200;-75
2023/03/02 08:39:47;;;;;;;58.77;25.07;;;2.80;99.90;;;;;;5050653;28;20273;-76
2023/03/02 08:42:14;;;;;;;63.90;25.80;;;2.90;99.90;;;;;;5066943;28;20200;-75
2023/03/02 08:44:41;;;;;;;74.27;26.60;;;3.00;99.90;;;;;;5055112;28;20221;-76
2023/03/02 08:47:07;;;;;;;71.17;27.10;;;3.10;99.90;;;;;;5062390;28;20242;-76
2023/03/02 08:49:36;;;;;;;69.27;25.23;;;3.20;99.90;;;;;;5038721;28;20196;-78
2023/03/02 08:52:03;;;;;;;67.50;26.23;;;3.30;99.90;;;;;;5048837;28;20240;-75
2023/03/02 08:54:33;;;;;;;71.53;27.67;;;3.40;99.90;;;;;;5052026;28;20287;-77
2023/03/02 08:57:01;;;;;;;64.63;25.07;;;3.50;99.90;;;;;;5038052;28;20255;-77
2023/03/02 08:59:29;;;;;;;64.13;25.33;;;3.60;99.90;;;;;;5050740;28;20197;-75
2023/03/02 09:01:58;;;;;;;60.73;25.70;;;3.60;99.90;;;;;;5066296;28;20198;-77
2023/03/02 09:04:24;;;;;;;66.37;26.60;;;3.70;99.90;;;;;;5056222;28;20712;-76
2023/03/02 09:06:51;;;;;;;62.37;26.03;;;3.80;99.90;;;;;;5041853;28;20285;-76
2023/03/02 09:09:18;;;;;;;52.10;25.17;;;4.00;99.90;;;;;;5063608;28;20255;-76
2023/03/02 09:11:45;;;;;;;59.60;24.20;;;4.20;99.90;;;;;;5052511;28;20216;-77
2023/03/02 09:14:12;;;;;;;53.77;22.43;;;4.20;99.90;;;;;;5065264;28;20538;-76
2023/03/02 09:16:39;;;;;;;50.47;22.57;;;4.30;99.90;;;;;;5058525;28;20204;-78
2023/03/02 09:19:06;;;;;;;45.13;20.43;;;4.30;99.90;;;;;;5042280;28;20200;-76
2023/03/02 09:21:32;;;;;;;50.63;21.67;;;4.30;99.90;;;;;;5065092;28;20298;-78
2023/03/02 09:23:59;;;;;;;52.60;22.70;;;4.30;99.90;;;;;;5053032;28;20549;-75
2023/03/02 09:26:27;;;;;;;46.33;21.63;;;4.40;99.90;;;;;;5048913;28;20258;-76
2023/03/02 09:28:54;;;;;;;46.10;22.23;;;4.60;99.90;;;;;;5049836;28;20239;-76
2023/03/02 09:31:21;;;;;;;46.40;21.80;;;4.60;99.90;;;;;;5046140;28;20205;-76
2023/03/02 09:33:48;;;;;;;59.10;21.57;;;4.70;99.90;;;;;;5040685;28;20209;-77
2023/03/02 09:36:23;;;;;;;51.83;23.37;;;4.80;99.90;;;;;;5038663;28;20627;-77
2023/03/02 09:38:50;;;;;;;58.83;24.30;;;4.90;99.90;;;;;;5043188;28;20246;-77
2023/03/02 09:41:20;;;;;;;50.53;23.33;;;4.80;99.90;;;;;;5027737;28;20222;-77
2023/03/02 09:44:15;;;;;;;50.10;24.57;;;4.80;99.90;;;;;;5046578;28;20204;-77
2023/03/02 09:46:48;;;;;;;50.60;21.60;;;4.60;99.90;;;;;;5022459;28;20705;-76
2023/03/02 09:49:24;;;;;;;44.90;21.17;;;4.60;99.90;;;;;;5039812;28;20230;-76
2023/03/02 09:52:15;;;;;;;48.03;21.90;;;4.60;99.90;;;;;;5056594;28;20205;-79
2023/03/02 09:54:42;;;;;;;45.70;21.10;;;4.60;99.90;;;;;;5065561;28;20629;-76
2023/03/02 09:57:25;;;;;;;47.87;21.07;;;4.70;99.90;;;;;;5031680;28;20202;-77
2023/03/02 10:00:01;;;;;;;43.77;20.60;;;4.60;99.90;;;;;;5049559;28;20229;-76
2023/03/02 10:02:53;;;;;;;41.73;19.50;;;4.70;99.90;;;;;;5043768;28;20196;-76
2023/03/02 10:05:36;;;;;;;38.50;19.63;;;4.70;99.90;;;;;;5041867;28;20256;-77
2023/03/02 10:08:03;;;;;;;48.63;21.53;;;4.70;99.90;;;;;;5023685;28;20668;-76
2023/03/02 10:10:42;;;;;;;44.97;22.37;;;4.80;99.90;;;;;;5029323;28;20619;-76
2023/03/02 10:13:22;;;;;;;41.63;20.37;;;5.00;99.90;;;;;;5032712;28;20286;-76
2023/03/02 10:15:57;;;;;;;40.87;20.03;;;5.20;99.90;;;;;;5033322;28;20336;-76
2023/03/02 10:18:44;;;;;;;40.30;20.17;;;5.20;99.90;;;;;;5021050;28;20236;-75
2023/03/02 10:21:20;;;;;;;44.00;21.00;;;5.30;99.90;;;;;;5051774;28;20250;-77
2023/03/02 10:24:01;;;;;;;41.83;19.23;;;5.20;99.90;;;;;;5052633;28;20210;-77
2023/03/02 10:26:42;;;;;;;38.97;18.63;;;5.20;99.90;;;;;;5052931;28;20220;-75
2023/03/02 10:29:17;;;;;;;35.50;18.67;;;5.10;99.90;;;;;;5052511;28;20757;-77
2023/03/02 10:31:45;;;;;;;38.40;20.10;;;5.00;99.90;;;;;;5052672;28;20291;-78
2023/03/02 10:34:13;;;;;;;43.43;20.23;;;5.00;99.90;;;;;;5054415;28;20193;-76
2023/03/02 10:36:43;;;;;;;47.10;21.00;;;5.00;99.90;;;;;;5051507;28;20259;-75
2023/03/02 10:39:13;;;;;;;41.23;20.40;;;5.00;99.90;;;;;;5052023;28;20335;-76
2023/03/02 10:42:01;;;;;;;42.33;21.43;;;5.00;99.90;;;;;;5051807;28;20267;-77
2023/03/02 10:44:30;;;;;;;43.20;19.83;;;5.00;99.90;;;;;;5052396;28;20197;-78
2023/03/02 10:46:58;;;;;;;39.97;19.80;;;5.00;99.90;;;;;;5033306;28;20648;-78
2023/03/02 10:49:30;;;;;;;41.03;19.90;;;5.00;99.90;;;;;;5060418;28;20527;-77
2023/03/02 10:52:03;;;;;;;38.77;18.57;;;5.10;99.90;;;;;;5059106;28;20297;-74
2023/03/02 10:54:34;;;;;;;34.80;18.27;;;5.00;99.90;;;;;;5027159;28;20299;-76
2023/03/02 10:57:03;;;;;;;36.40;18.30;;;5.00;99.90;;;;;;5050082;28;20236;-76
2023/03/02 10:59:39;;;;;;;38.00;18.70;;;5.00;99.90;;;;;;5053862;28;20221;-76
2023/03/02 11:02:28;;;;;;;35.83;18.27;;;4.90;99.90;;;;;;5052692;28;20201;-76
2023/03/02 11:04:57;;;;;;;39.33;19.60;;;5.00;99.90;;;;;;5051271;28;20640;-77
2023/03/02 11:07:27;;;;;;;35.50;18.57;;;5.00;99.90;;;;;;5051174;28;20212;-76
2023/03/02 11:10:03;;;;;;;32.97;17.40;;;5.10;99.90;;;;;;5050424;28;20666;-76
2023/03/02 11:12:34;;;;;;;37.23;18.83;;;5.20;99.90;;;;;;5050512;28;20288;-78
2023/03/02 11:15:31;;;;;;;31.90;17.60;;;5.30;99.90;;;;;;5051866;28;20201;-76
2023/03/02 11:18:18;;;;;;;33.87;17.97;;;5.40;99.90;;;;;;5052727;28;20204;-75
2023/03/02 11:20:49;;;;;;;32.83;17.43;;;5.60;99.90;;;;;;5033307;28;20648;-77
2023/03/02 11:23:20;;;;;;;33.23;17.17;;;5.70;99.90;;;;;;5049646;28;20248;-75
2023/03/02 11:25:54;;;;;;;32.80;16.97;;;5.70;99.90;;;;;;5047929;28;20308;-81
2023/03/02 11:28:55;;;;;;;29.57;15.37;;;5.80;99.90;;;;;;5033202;28;20558;-80
2023/03/02 11:31:31;;;;;;;29.10;16.20;;;5.90;99.90;;;;;;5049411;28;20230;-76
2023/03/02 11:34:13;;;;;;;29.60;16.73;;;5.90;99.90;;;;;;5050275;28;20288;-76
2023/03/02 11:36:58;;;;;;;30.10;15.70;;;6.00;99.90;;;;;;5051414;28;20459;-77
2023/03/02 11:39:48;;;;;;;33.97;16.90;;;6.20;99.90;;;;;;5050344;28;20319;-76
2023/03/02 11:42:40;;;;;;;31.37;17.10;;;6.40;99.90;;;;;;5046753;28;20201;-76
2023/03/02 11:45:12;;;;;;;31.43;15.73;;;6.60;99.90;;;;;;5048980;28;20198;-76
2023/03/02 11:47:47;;;;;;;28.57;15.87;;;6.80;99.90;;;;;;5047669;28;20261;-76
2023/03/02 11:50:25;;;;;;;29.80;15.87;;;6.90;99.90;;;;;;5033733;28;20194;-76
2023/03/02 11:52:57;;;;;;;30.30;16.33;;;7.00;99.90;;;;;;5050184;28;20301;-76
2023/03/02 11:55:27;;;;;;;29.60;15.77;;;7.10;99.90;;;;;;5047014;28;20301;-76
2023/03/02 11:58:00;;;;;;;29.07;15.87;;;7.20;99.90;;;;;;5051174;28;20323;-76
2023/03/02 12:00:30;;;;;;;32.47;17.53;;;7.30;99.90;;;;;;5049693;28;20678;-78
2023/03/02 12:03:01;;;;;;;29.57;15.50;;;7.40;99.90;;;;;;5049754;28;20238;-76
2023/03/02 12:05:34;;;;;;;27.60;15.83;;;7.60;99.90;;;;;;5032520;28;20325;-78
2023/03/02 12:08:32;;;;;;;30.70;15.90;;;7.70;99.90;;;;;;5032180;28;20298;-75
2023/03/02 12:11:16;;;;;;;30.63;16.33;;;7.90;99.90;;;;;;5050608;28;20629;-76
2023/03/02 12:13:58;;;;;;;27.53;14.90;;;8.10;99.90;;;;;;5048600;28;20201;-77
2023/03/02 12:16:36;;;;;;;27.17;14.87;;;8.20;99.90;;;;;;5031452;28;20222;-76
2023/03/02 12:19:23;;;;;;;26.83;14.47;;;8.30;99.90;;;;;;5028831;28;20220;-76
2023/03/02 12:22:04;;;;;;;25.73;14.57;;;8.40;99.90;;;;;;5023029;28;20207;-76
2023/03/02 12:24:33;;;;;;;29.30;14.60;;;8.50;99.90;;;;;;5050498;28;20201;-78
2023/03/02 12:27:12;;;;;;;26.60;14.27;;;8.60;99.90;;;;;;5049429;28;20228;-75
2023/03/02 12:29:48;;;;;;;28.47;15.20;;;8.70;99.90;;;;;;5050627;28;20227;-76
2023/03/02 12:32:17;;;;;;;26.17;14.80;;;8.80;99.90;;;;;;5051626;28;20291;-76
2023/03/02 12:34:52;;;;;;;24.50;13.63;;;8.90;99.90;;;;;;5039801;28;20205;-76
2023/03/02 12:37:43;;;;;;;23.83;13.53;;;8.90;99.90;;;;;;5050538;28;20196;-75
2023/03/02 12:40:28;;;;;;;22.53;12.07;;;9.10;99.90;;;;;;5047396;28;20212;-75
2023/03/02 12:43:08;;;;;;;21.50;12.17;;;10.00;99.90;;;;;;5058558;28;20206;-76
2023/03/02 12:45:53;;;;;;;25.07;12.20;;;9.40;99.90;;;;;;5035365;28;20638;-77
2023/03/02 12:48:36;;;;;;;18.53;11.57;;;9.40;99.90;;;;;;5038111;28;20248;-76